Agoura Hills, California
Current Conditions -  °F | °C
As of 5:51 PM on Friday 24 Oct 2014 (Local Time) from KVNY Reporting Station
Clear Clear  
Wind Chill: 81°   Ceiling: Unl
Heat Index: 81°   Visibility: 10mi
Dew Point: 30°   Wind: 8mph
Humidity: 16%   Direction: 170°S
Pressure: 29.93"   Gusts: NA
Location:  34.15°N, 118.77°W
Report Text: KVNY 250051Z 17007KT 10SM CLR 27/M01 A2993 RMK AO2 SLP129 T02721011
Loading
Personal Weather Stations






























Interactive Weather Map New forecast layout! Learn more

10-Day Weather Forecast

Advertisements
Track Severe Weather on mobile